createdAt,value
2023-04-23T00:00:27.998Z,24.60
2023-04-23T00:03:23.365Z,21.13
2023-04-23T00:06:11.843Z,18.73
2023-04-23T00:09:03.866Z,22.73
2023-04-23T00:11:52.688Z,23.23
2023-04-23T00:15:17.076Z,19.80
2023-04-23T00:18:07.631Z,20.70
2023-04-23T00:20:57.692Z,20.63
2023-04-23T00:23:45.600Z,23.23
2023-04-23T00:26:39.050Z,27.63
2023-04-23T00:29:26.732Z,25.73
2023-04-23T00:32:15.270Z,25.42
2023-04-23T00:35:07.180Z,22.60
2023-04-23T00:37:57.759Z,24.55
2023-04-23T00:40:45.413Z,28.13
2023-04-23T00:43:34.019Z,28.30
2023-04-23T00:46:26.411Z,22.15
2023-04-23T00:49:14.651Z,31.52
2023-04-23T00:52:04.377Z,27.30
2023-04-23T00:54:55.415Z,29.35
2023-04-23T00:57:44.937Z,29.92
2023-04-23T01:00:34.612Z,34.30
2023-04-23T01:03:26.578Z,27.45
2023-04-23T01:06:14.955Z,25.63
2023-04-23T01:09:06.255Z,27.48
2023-04-23T01:11:58.172Z,30.75
2023-04-23T01:14:46.256Z,27.33
2023-04-23T01:17:42.149Z,30.63
2023-04-23T01:20:30.777Z,32.45
2023-04-23T01:23:26.480Z,31.48
2023-04-23T01:26:19.222Z,31.00
2023-04-23T01:29:09.746Z,33.35
2023-04-23T01:32:08.625Z,30.98
2023-04-23T01:34:57.724Z,33.42
2023-04-23T01:37:50.052Z,33.70
2023-04-23T01:40:43.356Z,43.47
2023-04-23T01:43:32.276Z,37.73
2023-04-23T01:46:21.264Z,35.97
2023-04-23T01:49:12.446Z,38.90
2023-04-23T01:52:00.518Z,39.42
2023-04-23T01:54:50.604Z,44.13
2023-04-23T01:57:38.428Z,40.45
2023-04-23T02:00:26.088Z,47.17
2023-04-23T02:03:14.168Z,39.03
2023-04-23T02:06:06.029Z,44.03
2023-04-23T02:08:59.386Z,43.63
2023-04-23T02:11:47.234Z,44.83
2023-04-23T02:14:41.779Z,40.95
2023-04-23T02:17:35.559Z,44.00
2023-04-23T02:20:23.512Z,51.72
2023-04-23T02:23:18.630Z,52.28
2023-04-23T02:26:09.879Z,43.22
2023-04-23T02:28:57.781Z,42.42
2023-04-23T02:31:51.930Z,42.83
2023-04-23T02:34:48.836Z,42.03
2023-04-23T02:37:37.375Z,40.22
2023-04-23T02:40:32.858Z,50.97
2023-04-23T02:43:27.069Z,50.25
2023-04-23T02:49:48.544Z,44.17
2023-04-23T02:55:50.912Z,46.38
2023-04-23T02:59:04.780Z,45.22
2023-04-23T03:01:52.518Z,46.00
2023-04-23T03:04:40.361Z,54.05
2023-04-23T03:07:28.263Z,47.20
2023-04-23T03:10:15.921Z,56.75
2023-04-23T03:13:07.096Z,63.33
2023-04-23T03:15:56.142Z,52.75
2023-04-23T03:18:43.685Z,55.10
2023-04-23T03:21:31.555Z,54.78
2023-04-23T03:24:19.424Z,58.22
2023-04-23T03:27:07.146Z,53.63
2023-04-23T03:29:54.810Z,57.72
2023-04-23T03:32:42.440Z,50.67
2023-04-23T03:35:30.672Z,50.92
2023-04-23T03:38:21.544Z,49.28
2023-04-23T03:41:09.727Z,56.20
2023-04-23T03:44:00.150Z,49.30
2023-04-23T03:46:50.771Z,50.95
2023-04-23T03:49:47.142Z,52.28
2023-04-23T03:52:45.478Z,44.83
2023-04-23T03:55:40.403Z,39.38
2023-04-23T03:59:30.412Z,41.38
2023-04-23T04:02:50.670Z,46.33
2023-04-23T04:06:03.642Z,44.70
2023-04-23T04:09:20.434Z,49.00
2023-04-23T04:12:41.314Z,48.75
2023-04-23T04:15:58.656Z,42.40
2023-04-23T04:22:14.526Z,39.92
2023-04-23T04:25:32.969Z,44.38
2023-04-23T04:28:45.108Z,42.47
2023-04-23T04:40:04.245Z,41.85
2023-04-23T04:51:43.385Z,37.05
2023-04-23T04:54:31.296Z,34.15
2023-04-23T04:57:56.439Z,37.95
2023-04-23T05:00:47.894Z,34.78
2023-04-23T05:03:37.277Z,33.13
2023-04-23T05:06:57.200Z,27.52
2023-04-23T05:09:56.618Z,29.55
2023-04-23T05:13:22.422Z,28.58
2023-04-23T05:19:32.237Z,28.10
2023-04-23T05:23:41.238Z,34.15
2023-04-23T05:26:43.995Z,29.02
2023-04-23T05:29:46.530Z,30.20
2023-04-23T05:32:41.457Z,31.02
2023-04-23T05:43:21.645Z,23.98
2023-04-23T05:46:59.999Z,25.00
2023-04-23T06:03:00.462Z,17.15
2023-04-23T06:06:11.161Z,18.10
2023-04-23T06:13:44.090Z,16.83
2023-04-23T06:37:30.453Z,12.40
2023-04-23T06:52:02.831Z,12.55
2023-04-23T07:03:01.486Z,14.95
2023-04-23T07:44:51.824Z,11.32
2023-04-23T08:11:42.245Z,8.85
2023-04-23T08:14:40.995Z,9.23
2023-04-23T08:17:38.200Z,8.73
2023-04-23T08:20:27.250Z,8.02
2023-04-23T08:23:58.056Z,7.47
2023-04-23T08:27:13.895Z,9.15
2023-04-23T08:52:06.511Z,9.77
2023-04-23T08:55:53.342Z,11.80
2023-04-23T08:59:11.502Z,9.77
2023-04-23T09:02:38.504Z,11.68
2023-04-23T09:06:00.266Z,11.48
2023-04-23T09:12:45.426Z,10.73
2023-04-23T09:15:52.800Z,10.55
2023-04-23T09:27:42.008Z,7.43
2023-04-23T09:38:52.516Z,7.85
2023-04-23T09:41:45.972Z,7.07
2023-04-23T09:44:44.617Z,8.20
2023-04-23T09:47:42.199Z,7.40
2023-04-23T09:50:52.446Z,5.47
2023-04-23T09:53:51.875Z,6.65
2023-04-23T09:56:44.425Z,7.32
2023-04-23T10:04:04.812Z,5.95
2023-04-23T10:07:24.149Z,6.57
2023-04-23T10:10:57.421Z,5.97
2023-04-23T10:14:50.792Z,5.70
2023-04-23T10:18:08.598Z,4.63
2023-04-23T10:34:55.437Z,5.95
2023-04-23T10:38:04.368Z,7.00
2023-04-23T10:40:55.834Z,4.35
2023-04-23T10:43:43.681Z,5.68
2023-04-23T10:46:39.300Z,5.30
2023-04-23T10:49:37.349Z,4.80
2023-04-23T10:52:26.089Z,4.15
2023-04-23T10:55:19.188Z,4.55
2023-04-23T10:58:08.879Z,5.55
2023-04-23T11:00:56.965Z,4.43
2023-04-23T11:03:51.804Z,5.57
2023-04-23T11:06:48.565Z,4.28
2023-04-23T11:10:26.657Z,6.65
2023-04-23T11:13:35.721Z,4.57
2023-04-23T11:16:45.623Z,6.43
2023-04-23T11:19:41.323Z,4.28
2023-04-23T11:23:00.115Z,5.75
2023-04-23T11:25:54.450Z,4.70
2023-04-23T11:28:57.270Z,5.78
2023-04-23T11:32:01.433Z,8.07
2023-04-23T11:34:51.597Z,5.32
2023-04-23T11:37:43.759Z,5.75
2023-04-23T11:40:35.178Z,5.65
2023-04-23T11:43:32.443Z,6.55
2023-04-23T11:46:21.269Z,5.72
2023-04-23T11:49:09.872Z,7.43
2023-04-23T11:52:05.834Z,3.70
2023-04-23T11:54:57.430Z,5.93
2023-04-23T12:01:37.999Z,8.10
2023-04-23T12:04:41.081Z,4.38
2023-04-23T12:07:52.934Z,4.13
2023-04-23T12:10:55.290Z,9.05
2023-04-23T12:14:04.753Z,3.90
2023-04-23T12:17:26.151Z,8.50
2023-04-23T12:23:44.111Z,6.00
2023-04-23T12:26:54.648Z,4.30
2023-04-23T12:30:07.385Z,4.78
2023-04-23T12:33:52.793Z,6.32
2023-04-23T12:37:41.724Z,4.18
2023-04-23T12:48:09.141Z,5.22
2023-04-23T12:55:25.171Z,5.55
2023-04-23T12:59:07.560Z,3.55
2023-04-23T13:02:40.496Z,4.60
2023-04-23T13:06:11.901Z,3.72
2023-04-23T13:13:09.460Z,4.18
2023-04-23T13:32:15.569Z,3.55
2023-04-23T13:35:14.649Z,5.18
2023-04-23T13:38:07.702Z,3.65
2023-04-23T13:41:09.656Z,3.15
2023-04-23T13:44:11.534Z,4.35
2023-04-23T13:47:15.273Z,4.70
2023-04-23T13:50:10.275Z,4.37
2023-04-23T13:53:30.634Z,2.58
2023-04-23T13:56:21.975Z,2.47
2023-04-23T14:02:57.954Z,3.30
2023-04-23T14:05:50.692Z,1.98
2023-04-23T14:08:57.797Z,3.05
2023-04-23T14:12:16.241Z,2.78
2023-04-23T14:15:28.588Z,1.80
2023-04-23T14:18:20.584Z,2.15
2023-04-23T14:21:11.287Z,1.90
2023-04-23T14:24:12.015Z,2.25
2023-04-23T14:26:59.716Z,2.05
2023-04-23T14:30:06.344Z,2.53
2023-04-23T14:32:59.597Z,1.50
2023-04-23T14:35:48.224Z,3.55
2023-04-23T14:38:38.912Z,1.92
2023-04-23T14:41:28.154Z,1.63
2023-04-23T14:44:22.327Z,1.30
2023-04-23T14:50:11.882Z,1.60
2023-04-23T14:53:03.843Z,1.52
2023-04-23T14:55:56.345Z,1.42
2023-04-23T14:58:49.638Z,3.20
2023-04-23T15:01:37.509Z,2.40
2023-04-23T15:04:28.343Z,3.45
2023-04-23T15:07:15.921Z,3.08
2023-04-23T15:10:11.693Z,2.95
2023-04-23T15:13:03.778Z,4.72
2023-04-23T15:16:04.919Z,1.70
2023-04-23T15:18:57.315Z,2.40
2023-04-23T15:21:47.536Z,1.75
2023-04-23T15:24:38.635Z,2.05
2023-04-23T15:27:31.396Z,2.28
2023-04-23T15:30:27.979Z,1.75
2023-04-23T15:33:15.784Z,2.55
2023-04-23T15:36:14.833Z,2.25
2023-04-23T15:39:02.895Z,1.48
2023-04-23T15:41:59.606Z,3.33
2023-04-23T15:44:51.981Z,2.50
2023-04-23T15:47:40.092Z,7.10
2023-04-23T15:50:27.875Z,3.00
2023-04-23T15:53:15.680Z,2.90
2023-04-23T15:56:09.461Z,2.30
2023-04-23T15:58:57.198Z,2.40
2023-04-23T16:01:44.963Z,1.92
2023-04-23T16:04:35.800Z,2.58
2023-04-23T16:07:26.866Z,2.08
2023-04-23T16:10:15.247Z,4.00
2023-04-23T16:13:10.104Z,1.38
2023-04-23T16:16:03.426Z,2.10
2023-04-23T16:18:52.485Z,5.27
2023-04-23T16:21:43.502Z,2.90
2023-04-23T16:24:33.861Z,1.70
2023-04-23T16:27:23.146Z,2.75
2023-04-23T16:30:11.133Z,2.58
2023-04-23T16:33:07.218Z,2.40
2023-04-23T16:36:05.761Z,2.40
2023-04-23T16:38:53.472Z,4.40
2023-04-23T16:41:49.055Z,6.85
2023-04-23T16:44:48.721Z,4.13
2023-04-23T16:54:41.924Z,5.65
2023-04-23T16:57:45.427Z,5.18
2023-04-23T17:01:07.689Z,4.57
2023-04-23T17:04:15.553Z,3.22
2023-04-23T17:19:09.501Z,5.65
2023-04-23T17:25:55.128Z,4.82
2023-04-23T17:40:39.453Z,5.32
2023-04-23T17:58:48.496Z,5.30
2023-04-23T18:26:27.643Z,3.97
2023-04-23T18:47:50.237Z,6.60
2023-04-23T18:51:36.805Z,3.95
2023-04-23T18:55:39.080Z,4.13
2023-04-23T19:07:02.288Z,4.15
2023-04-23T19:10:27.891Z,3.25
2023-04-23T19:15:23.330Z,5.75
2023-04-23T19:20:25.717Z,2.97
2023-04-23T19:23:19.258Z,6.38
2023-04-23T19:30:03.953Z,4.13
2023-04-23T19:36:16.854Z,4.13
2023-04-23T19:39:20.954Z,3.58
2023-04-23T19:42:26.319Z,4.55
2023-04-23T19:45:35.239Z,2.67
2023-04-23T19:51:40.247Z,3.45
2023-04-23T19:54:52.150Z,1.70
2023-04-23T19:57:53.055Z,2.15
2023-04-23T20:00:52.621Z,1.80
2023-04-23T20:04:42.298Z,2.33
2023-04-23T20:07:45.952Z,3.88
2023-04-23T20:47:50.766Z,2.90
2023-04-23T20:51:08.507Z,5.38
2023-04-23T21:00:38.433Z,4.30
2023-04-23T21:04:00.053Z,4.53
2023-04-23T21:07:33.175Z,5.07
2023-04-23T21:10:26.946Z,3.00
2023-04-23T21:13:26.149Z,2.63
2023-04-23T21:16:14.745Z,2.78
2023-04-23T21:19:14.237Z,4.68
2023-04-23T21:22:08.599Z,5.65
2023-04-23T21:25:08.992Z,4.97
2023-04-23T21:35:10.654Z,3.42
2023-04-23T21:36:51.435Z,2.90
2023-04-23T22:03:27.311Z,2.63
2023-04-23T22:08:12.613Z,4.53
2023-04-23T22:10:41.854Z,5.65
2023-04-23T22:24:33.885Z,5.90
2023-04-23T22:33:21.235Z,2.42
2023-04-23T22:36:55.508Z,2.55
2023-04-23T22:40:02.796Z,4.78
2023-04-23T22:43:53.599Z,4.28
2023-04-23T22:48:38.334Z,2.35
2023-04-23T22:54:38.713Z,3.53
2023-04-23T22:57:46.508Z,2.80
2023-04-23T23:04:33.598Z,2.83
2023-04-23T23:08:17.732Z,3.40
2023-04-23T23:11:18.864Z,2.97
2023-04-23T23:14:13.661Z,2.28
2023-04-23T23:17:13.705Z,3.22
2023-04-23T23:20:03.878Z,4.35
2023-04-23T23:26:11.977Z,5.78
2023-04-23T23:29:16.667Z,2.78
2023-04-23T23:49:08.120Z,4.03
2023-04-23T23:52:05.687Z,1.92
2023-04-23T23:55:00.265Z,3.38
2023-04-23T23:57:54.286Z,3.75
